Terminal Aerodrome Forecast
Issued by NWS Shreveport, LA

Home | Current Version | Previous Version | Text Only | Print | Product List | Glossary On
Versions: 1 2 3 4 5 6 7 8 9 10 11 12 13 14
000
FTUS44 KSHV 290800 AAA
TAFLFK
TAF AMD
KLFK 290815Z 2908/3006 16007KT 5SM BR OVC003
     FM291400 18006KT P6SM BKN015
     FM291600 25006KT P6SM BKN250
     FM300000 35006KT P6SM BKN250=

USA.gov is the U.S. government's official web portal to all federal, state and local government web resources and services.